sensor_id;sensor_type;location;lat;lon;timestamp;P1;durP1;ratioP1;P2;durP2;ratioP2
29550;SDS011;16488;52.396;10.696;2022-12-29T00:01:17;7.32;;;2.90;;
29550;SDS011;16488;52.396;10.696;2022-12-29T00:03:46;5.82;;;2.38;;
29550;SDS011;16488;52.396;10.696;2022-12-29T00:06:12;2.53;;;1.95;;
29550;SDS011;16488;52.396;10.696;2022-12-29T00:08:37;5.20;;;1.80;;
29550;SDS011;16488;52.396;10.696;2022-12-29T00:11:07;2.67;;;1.98;;
29550;SDS011;16488;52.396;10.696;2022-12-29T00:13:39;4.65;;;2.20;;
29550;SDS011;16488;52.396;10.696;2022-12-29T00:16:25;3.97;;;2.42;;
29550;SDS011;16488;52.396;10.696;2022-12-29T00:18:51;3.20;;;2.22;;
29550;SDS011;16488;52.396;10.696;2022-12-29T00:21:17;4.35;;;2.00;;
29550;SDS011;16488;52.396;10.696;2022-12-29T00:24:03;5.43;;;2.10;;
29550;SDS011;16488;52.396;10.696;2022-12-29T00:26:49;6.53;;;2.25;;
29550;SDS011;16488;52.396;10.696;2022-12-29T00:29:40;2.70;;;2.17;;
29550;SDS011;16488;52.396;10.696;2022-12-29T00:32:24;5.80;;;2.22;;
29550;SDS011;16488;52.396;10.696;2022-12-29T00:35:12;3.50;;;2.00;;
29550;SDS011;16488;52.396;10.696;2022-12-29T00:37:46;4.97;;;2.45;;
29550;SDS011;16488;52.396;10.696;2022-12-29T00:40:32;4.90;;;2.20;;
29550;SDS011;16488;52.396;10.696;2022-12-29T00:43:16;3.88;;;2.30;;
29550;SDS011;16488;52.396;10.696;2022-12-29T00:46:00;2.78;;;2.05;;
29550;SDS011;16488;52.396;10.696;2022-12-29T00:48:26;4.05;;;2.00;;
29550;SDS011;16488;52.396;10.696;2022-12-29T00:51:10;4.10;;;2.38;;
29550;SDS011;16488;52.396;10.696;2022-12-29T00:53:35;3.92;;;2.38;;
29550;SDS011;16488;52.396;10.696;2022-12-29T00:56:01;8.13;;;2.92;;
29550;SDS011;16488;52.396;10.696;2022-12-29T00:58:27;13.20;;;3.63;;
29550;SDS011;16488;52.396;10.696;2022-12-29T01:01:00;3.78;;;2.58;;
29550;SDS011;16488;52.396;10.696;2022-12-29T01:03:29;6.70;;;3.03;;
29550;SDS011;16488;52.396;10.696;2022-12-29T01:05:55;6.30;;;2.45;;
29550;SDS011;16488;52.396;10.696;2022-12-29T01:08:21;4.03;;;2.50;;
29550;SDS011;16488;52.396;10.696;2022-12-29T01:10:57;4.47;;;2.95;;
29550;SDS011;16488;52.396;10.696;2022-12-29T01:13:27;7.40;;;3.00;;
29550;SDS011;16488;52.396;10.696;2022-12-29T01:15:52;6.35;;;2.72;;
29550;SDS011;16488;52.396;10.696;2022-12-29T01:18:19;5.50;;;2.67;;
29550;SDS011;16488;52.396;10.696;2022-12-29T01:20:45;4.82;;;2.40;;
29550;SDS011;16488;52.396;10.696;2022-12-29T01:23:11;5.20;;;2.55;;
29550;SDS011;16488;52.396;10.696;2022-12-29T01:25:37;4.20;;;2.38;;
29550;SDS011;16488;52.396;10.696;2022-12-29T01:28:02;7.43;;;2.43;;
29550;SDS011;16488;52.396;10.696;2022-12-29T01:30:28;6.18;;;2.72;;
29550;SDS011;16488;52.396;10.696;2022-12-29T01:32:53;6.40;;;3.50;;
29550;SDS011;16488;52.396;10.696;2022-12-29T01:35:19;9.23;;;2.97;;
29550;SDS011;16488;52.396;10.696;2022-12-29T01:37:45;5.93;;;2.58;;
29550;SDS011;16488;52.396;10.696;2022-12-29T01:40:10;9.40;;;2.90;;
29550;SDS011;16488;52.396;10.696;2022-12-29T01:42:36;5.07;;;2.38;;
29550;SDS011;16488;52.396;10.696;2022-12-29T01:45:12;6.30;;;2.47;;
29550;SDS011;16488;52.396;10.696;2022-12-29T01:47:52;6.53;;;2.50;;
29550;SDS011;16488;52.396;10.696;2022-12-29T01:52:56;4.50;;;2.60;;
29550;SDS011;16488;52.396;10.696;2022-12-29T01:55:31;4.63;;;2.35;;
29550;SDS011;16488;52.396;10.696;2022-12-29T01:58:01;6.55;;;2.78;;
29550;SDS011;16488;52.396;10.696;2022-12-29T02:00:30;5.28;;;2.47;;
29550;SDS011;16488;52.396;10.696;2022-12-29T02:02:55;3.85;;;2.28;;
29550;SDS011;16488;52.396;10.696;2022-12-29T02:05:25;6.43;;;2.08;;
29550;SDS011;16488;52.396;10.696;2022-12-29T02:07:55;6.10;;;2.15;;
29550;SDS011;16488;52.396;10.696;2022-12-29T02:10:21;2.83;;;1.70;;
29550;SDS011;16488;52.396;10.696;2022-12-29T02:12:49;4.65;;;1.75;;
29550;SDS011;16488;52.396;10.696;2022-12-29T02:15:15;7.82;;;2.25;;
29550;SDS011;16488;52.396;10.696;2022-12-29T02:17:44;7.97;;;2.20;;
29550;SDS011;16488;52.396;10.696;2022-12-29T02:28:26;2.63;;;2.03;;
29550;SDS011;16488;52.396;10.696;2022-12-29T02:39:10;2.63;;;2.20;;
29550;SDS011;16488;52.396;10.696;2022-12-29T02:42:05;2.85;;;2.15;;
29550;SDS011;16488;52.396;10.696;2022-12-29T02:47:56;3.03;;;2.25;;
29550;SDS011;16488;52.396;10.696;2022-12-29T02:50:46;3.00;;;2.05;;
29550;SDS011;16488;52.396;10.696;2022-12-29T02:53:25;5.80;;;2.03;;
29550;SDS011;16488;52.396;10.696;2022-12-29T02:56:27;4.68;;;2.17;;
29550;SDS011;16488;52.396;10.696;2022-12-29T02:58:53;3.03;;;1.52;;
29550;SDS011;16488;52.396;10.696;2022-12-29T03:11:42;2.47;;;1.70;;
29550;SDS011;16488;52.396;10.696;2022-12-29T03:14:33;2.67;;;2.00;;
29550;SDS011;16488;52.396;10.696;2022-12-29T03:20:31;2.42;;;1.95;;
29550;SDS011;16488;52.396;10.696;2022-12-29T03:23:10;2.90;;;2.28;;
29550;SDS011;16488;52.396;10.696;2022-12-29T03:25:37;6.90;;;2.88;;
29550;SDS011;16488;52.396;10.696;2022-12-29T03:28:10;4.07;;;2.15;;
29550;SDS011;16488;52.396;10.696;2022-12-29T03:30:40;3.15;;;2.03;;
29550;SDS011;16488;52.396;10.696;2022-12-29T03:33:10;4.07;;;2.05;;
29550;SDS011;16488;52.396;10.696;2022-12-29T03:35:38;3.95;;;1.88;;
29550;SDS011;16488;52.396;10.696;2022-12-29T03:38:12;3.50;;;2.45;;
29550;SDS011;16488;52.396;10.696;2022-12-29T03:40:52;2.88;;;1.70;;
29550;SDS011;16488;52.396;10.696;2022-12-29T03:43:21;2.17;;;1.83;;
29550;SDS011;16488;52.396;10.696;2022-12-29T03:45:47;2.40;;;2.05;;
29550;SDS011;16488;52.396;10.696;2022-12-29T03:48:13;4.43;;;1.73;;
29550;SDS011;16488;52.396;10.696;2022-12-29T03:50:39;4.07;;;1.85;;
29550;SDS011;16488;52.396;10.696;2022-12-29T03:53:05;3.75;;;1.80;;
29550;SDS011;16488;52.396;10.696;2022-12-29T03:55:30;2.63;;;2.03;;
29550;SDS011;16488;52.396;10.696;2022-12-29T03:57:56;3.85;;;1.95;;
29550;SDS011;16488;52.396;10.696;2022-12-29T04:00:21;2.53;;;1.63;;
29550;SDS011;16488;52.396;10.696;2022-12-29T04:02:47;3.10;;;1.70;;
29550;SDS011;16488;52.396;10.696;2022-12-29T04:05:12;1.52;;;1.40;;
29550;SDS011;16488;52.396;10.696;2022-12-29T04:07:38;6.30;;;1.85;;
29550;SDS011;16488;52.396;10.696;2022-12-29T04:10:04;4.22;;;1.88;;
29550;SDS011;16488;52.396;10.696;2022-12-29T04:12:29;3.15;;;2.10;;
29550;SDS011;16488;52.396;10.696;2022-12-29T04:14:55;7.72;;;2.08;;
29550;SDS011;16488;52.396;10.696;2022-12-29T04:17:20;3.20;;;1.95;;
29550;SDS011;16488;52.396;10.696;2022-12-29T04:19:46;7.55;;;2.00;;
29550;SDS011;16488;52.396;10.696;2022-12-29T04:22:12;2.22;;;1.65;;
29550;SDS011;16488;52.396;10.696;2022-12-29T04:24:37;3.60;;;1.70;;
29550;SDS011;16488;52.396;10.696;2022-12-29T04:27:03;2.27;;;1.70;;
29550;SDS011;16488;52.396;10.696;2022-12-29T04:29:29;2.08;;;1.60;;
29550;SDS011;16488;52.396;10.696;2022-12-29T04:31:54;2.83;;;1.70;;
29550;SDS011;16488;52.396;10.696;2022-12-29T04:34:20;3.83;;;1.75;;
29550;SDS011;16488;52.396;10.696;2022-12-29T04:36:45;4.97;;;1.95;;
29550;SDS011;16488;52.396;10.696;2022-12-29T04:39:11;1.63;;;1.40;;
29550;SDS011;16488;52.396;10.696;2022-12-29T04:41:37;2.17;;;1.52;;
29550;SDS011;16488;52.396;10.696;2022-12-29T04:44:02;2.10;;;1.58;;
29550;SDS011;16488;52.396;10.696;2022-12-29T04:46:28;3.40;;;1.50;;
29550;SDS011;16488;52.396;10.696;2022-12-29T04:48:54;2.88;;;1.77;;
29550;SDS011;16488;52.396;10.696;2022-12-29T04:51:19;2.60;;;1.85;;
29550;SDS011;16488;52.396;10.696;2022-12-29T04:53:45;2.97;;;1.70;;
29550;SDS011;16488;52.396;10.696;2022-12-29T04:56:10;4.20;;;1.40;;
29550;SDS011;16488;52.396;10.696;2022-12-29T04:58:36;1.63;;;1.52;;
29550;SDS011;16488;52.396;10.696;2022-12-29T05:01:02;3.60;;;1.55;;
29550;SDS011;16488;52.396;10.696;2022-12-29T05:03:28;5.07;;;1.90;;
29550;SDS011;16488;52.396;10.696;2022-12-29T05:05:54;2.85;;;2.08;;
29550;SDS011;16488;52.396;10.696;2022-12-29T05:08:20;3.38;;;1.92;;
29550;SDS011;16488;52.396;10.696;2022-12-29T05:10:46;5.20;;;1.58;;
29550;SDS011;16488;52.396;10.696;2022-12-29T05:13:12;3.95;;;2.75;;
29550;SDS011;16488;52.396;10.696;2022-12-29T05:15:38;7.82;;;2.10;;
29550;SDS011;16488;52.396;10.696;2022-12-29T05:18:03;3.08;;;1.77;;
29550;SDS011;16488;52.396;10.696;2022-12-29T05:20:29;3.03;;;1.55;;
29550;SDS011;16488;52.396;10.696;2022-12-29T05:22:55;2.88;;;1.70;;
29550;SDS011;16488;52.396;10.696;2022-12-29T05:25:20;1.93;;;1.63;;
29550;SDS011;16488;52.396;10.696;2022-12-29T05:27:46;7.28;;;1.90;;
29550;SDS011;16488;52.396;10.696;2022-12-29T05:30:11;2.20;;;1.40;;
29550;SDS011;16488;52.396;10.696;2022-12-29T05:32:37;3.70;;;1.60;;
29550;SDS011;16488;52.396;10.696;2022-12-29T05:35:03;3.92;;;1.90;;
29550;SDS011;16488;52.396;10.696;2022-12-29T05:37:29;2.33;;;1.70;;
29550;SDS011;16488;52.396;10.696;2022-12-29T05:39:54;6.93;;;1.40;;
29550;SDS011;16488;52.396;10.696;2022-12-29T05:42:20;2.13;;;1.10;;
29550;SDS011;16488;52.396;10.696;2022-12-29T05:44:46;5.45;;;1.40;;
29550;SDS011;16488;52.396;10.696;2022-12-29T05:47:14;2.45;;;1.45;;
29550;SDS011;16488;52.396;10.696;2022-12-29T05:49:40;3.37;;;1.70;;
29550;SDS011;16488;52.396;10.696;2022-12-29T05:52:06;2.83;;;1.30;;
29550;SDS011;16488;52.396;10.696;2022-12-29T05:54:31;2.80;;;1.60;;
29550;SDS011;16488;52.396;10.696;2022-12-29T05:56:57;5.60;;;1.80;;
29550;SDS011;16488;52.396;10.696;2022-12-29T05:59:22;7.90;;;2.03;;
29550;SDS011;16488;52.396;10.696;2022-12-29T06:01:48;7.97;;;2.28;;
29550;SDS011;16488;52.396;10.696;2022-12-29T06:04:14;5.60;;;2.03;;
29550;SDS011;16488;52.396;10.696;2022-12-29T06:06:39;4.97;;;2.13;;
29550;SDS011;16488;52.396;10.696;2022-12-29T06:09:05;2.65;;;1.58;;
29550;SDS011;16488;52.396;10.696;2022-12-29T06:11:31;1.60;;;1.33;;
29550;SDS011;16488;52.396;10.696;2022-12-29T06:13:56;5.00;;;1.45;;
29550;SDS011;16488;52.396;10.696;2022-12-29T06:16:22;2.93;;;1.30;;
29550;SDS011;16488;52.396;10.696;2022-12-29T06:18:47;1.48;;;1.10;;
29550;SDS011;16488;52.396;10.696;2022-12-29T06:21:13;4.35;;;1.00;;
29550;SDS011;16488;52.396;10.696;2022-12-29T06:23:39;2.80;;;1.23;;
29550;SDS011;16488;52.396;10.696;2022-12-29T06:26:04;1.40;;;1.00;;
29550;SDS011;16488;52.396;10.696;2022-12-29T06:28:30;1.13;;;0.98;;
29550;SDS011;16488;52.396;10.696;2022-12-29T06:30:55;2.23;;;1.10;;
29550;SDS011;16488;52.396;10.696;2022-12-29T06:33:22;2.10;;;1.10;;
29550;SDS011;16488;52.396;10.696;2022-12-29T06:35:48;0.77;;;0.77;;
29550;SDS011;16488;52.396;10.696;2022-12-29T06:38:13;1.13;;;1.02;;
29550;SDS011;16488;52.396;10.696;2022-12-29T06:40:39;1.17;;;0.90;;
29550;SDS011;16488;52.396;10.696;2022-12-29T06:43:06;2.35;;;0.73;;
29550;SDS011;16488;52.396;10.696;2022-12-29T06:45:32;1.45;;;1.20;;
29550;SDS011;16488;52.396;10.696;2022-12-29T06:47:57;1.43;;;0.90;;
29550;SDS011;16488;52.396;10.696;2022-12-29T06:50:23;2.87;;;1.40;;
29550;SDS011;16488;52.396;10.696;2022-12-29T06:52:49;3.33;;;0.98;;
29550;SDS011;16488;52.396;10.696;2022-12-29T06:55:14;1.33;;;0.80;;
29550;SDS011;16488;52.396;10.696;2022-12-29T07:00:06;0.85;;;0.70;;
29550;SDS011;16488;52.396;10.696;2022-12-29T07:04:58;1.17;;;1.08;;
29550;SDS011;16488;52.396;10.696;2022-12-29T07:07:24;2.90;;;0.85;;
29550;SDS011;16488;52.396;10.696;2022-12-29T07:09:49;0.82;;;0.50;;
29550;SDS011;16488;52.396;10.696;2022-12-29T07:12:15;1.23;;;0.63;;
29550;SDS011;16488;52.396;10.696;2022-12-29T07:14:40;2.92;;;0.75;;
29550;SDS011;16488;52.396;10.696;2022-12-29T07:17:06;0.90;;;0.60;;
29550;SDS011;16488;52.396;10.696;2022-12-29T07:19:32;1.05;;;0.95;;
29550;SDS011;16488;52.396;10.696;2022-12-29T07:21:58;0.50;;;0.50;;
29550;SDS011;16488;52.396;10.696;2022-12-29T07:24:24;0.82;;;0.55;;
29550;SDS011;16488;52.396;10.696;2022-12-29T07:26:50;0.65;;;0.65;;
29550;SDS011;16488;52.396;10.696;2022-12-29T07:29:16;1.55;;;0.77;;
29550;SDS011;16488;52.396;10.696;2022-12-29T07:31:42;0.80;;;0.77;;
29550;SDS011;16488;52.396;10.696;2022-12-29T07:34:08;2.53;;;0.80;;
29550;SDS011;16488;52.396;10.696;2022-12-29T07:36:33;0.70;;;0.70;;
29550;SDS011;16488;52.396;10.696;2022-12-29T07:38:59;1.20;;;0.90;;
29550;SDS011;16488;52.396;10.696;2022-12-29T07:41:25;0.98;;;0.70;;
29550;SDS011;16488;52.396;10.696;2022-12-29T07:43:50;0.50;;;0.50;;
29550;SDS011;16488;52.396;10.696;2022-12-29T07:46:16;0.57;;;0.57;;
29550;SDS011;16488;52.396;10.696;2022-12-29T07:48:41;0.67;;;0.67;;
29550;SDS011;16488;52.396;10.696;2022-12-29T07:51:07;1.87;;;0.73;;
29550;SDS011;16488;52.396;10.696;2022-12-29T07:53:32;0.73;;;0.70;;
29550;SDS011;16488;52.396;10.696;2022-12-29T07:55:58;4.78;;;1.15;;
29550;SDS011;16488;52.396;10.696;2022-12-29T07:58:24;1.30;;;0.83;;
29550;SDS011;16488;52.396;10.696;2022-12-29T08:00:53;1.92;;;0.90;;
29550;SDS011;16488;52.396;10.696;2022-12-29T08:03:20;2.72;;;0.73;;
29550;SDS011;16488;52.396;10.696;2022-12-29T08:05:46;1.02;;;0.73;;
29550;SDS011;16488;52.396;10.696;2022-12-29T08:08:12;1.05;;;0.70;;
29550;SDS011;16488;52.396;10.696;2022-12-29T08:10:37;0.88;;;0.70;;
29550;SDS011;16488;52.396;10.696;2022-12-29T08:13:03;1.63;;;0.73;;
29550;SDS011;16488;52.396;10.696;2022-12-29T08:15:28;1.00;;;0.80;;
29550;SDS011;16488;52.396;10.696;2022-12-29T08:17:54;2.17;;;1.00;;
29550;SDS011;16488;52.396;10.696;2022-12-29T08:20:20;4.25;;;1.08;;
29550;SDS011;16488;52.396;10.696;2022-12-29T08:22:45;1.37;;;0.80;;
29550;SDS011;16488;52.396;10.696;2022-12-29T08:25:11;3.30;;;0.77;;
29550;SDS011;16488;52.396;10.696;2022-12-29T08:27:37;2.80;;;0.90;;
29550;SDS011;16488;52.396;10.696;2022-12-29T08:30:03;1.42;;;1.00;;
29550;SDS011;16488;52.396;10.696;2022-12-29T08:32:29;2.15;;;0.90;;
29550;SDS011;16488;52.396;10.696;2022-12-29T08:34:54;1.45;;;0.88;;
29550;SDS011;16488;52.396;10.696;2022-12-29T08:37:20;2.90;;;0.75;;
29550;SDS011;16488;52.396;10.696;2022-12-29T08:39:46;1.00;;;0.90;;
29550;SDS011;16488;52.396;10.696;2022-12-29T08:42:12;1.00;;;0.65;;
29550;SDS011;16488;52.396;10.696;2022-12-29T08:44:38;0.73;;;0.73;;
29550;SDS011;16488;52.396;10.696;2022-12-29T08:47:04;5.30;;;0.55;;
29550;SDS011;16488;52.396;10.696;2022-12-29T08:49:30;1.77;;;0.75;;
29550;SDS011;16488;52.396;10.696;2022-12-29T08:51:56;0.63;;;0.60;;
29550;SDS011;16488;52.396;10.696;2022-12-29T08:54:22;0.95;;;0.70;;
29550;SDS011;16488;52.396;10.696;2022-12-29T08:56:47;0.65;;;0.60;;
29550;SDS011;16488;52.396;10.696;2022-12-29T08:59:13;2.20;;;0.80;;
29550;SDS011;16488;52.396;10.696;2022-12-29T09:01:38;3.30;;;0.80;;
29550;SDS011;16488;52.396;10.696;2022-12-29T09:04:05;1.45;;;0.90;;
29550;SDS011;16488;52.396;10.696;2022-12-29T09:06:31;3.10;;;1.35;;
29550;SDS011;16488;52.396;10.696;2022-12-29T09:08:57;0.85;;;0.80;;
29550;SDS011;16488;52.396;10.696;2022-12-29T09:11:23;2.45;;;0.80;;
29550;SDS011;16488;52.396;10.696;2022-12-29T09:13:50;2.97;;;1.00;;
29550;SDS011;16488;52.396;10.696;2022-12-29T09:16:17;1.20;;;1.00;;
29550;SDS011;16488;52.396;10.696;2022-12-29T09:18:43;2.92;;;0.88;;
29550;SDS011;16488;52.396;10.696;2022-12-29T09:21:10;1.42;;;0.75;;
29550;SDS011;16488;52.396;10.696;2022-12-29T09:23:36;1.70;;;1.05;;
29550;SDS011;16488;52.396;10.696;2022-12-29T09:26:02;1.23;;;1.00;;
29550;SDS011;16488;52.396;10.696;2022-12-29T09:30:54;3.53;;;1.13;;
29550;SDS011;16488;52.396;10.696;2022-12-29T09:33:20;2.35;;;1.17;;
29550;SDS011;16488;52.396;10.696;2022-12-29T09:35:50;3.80;;;1.65;;
29550;SDS011;16488;52.396;10.696;2022-12-29T09:38:20;4.28;;;1.55;;
29550;SDS011;16488;52.396;10.696;2022-12-29T09:40:50;4.13;;;1.10;;
29550;SDS011;16488;52.396;10.696;2022-12-29T09:43:51;5.60;;;1.20;;
29550;SDS011;16488;52.396;10.696;2022-12-29T09:46:31;3.78;;;1.27;;
29550;SDS011;16488;52.396;10.696;2022-12-29T09:49:19;4.43;;;0.90;;
29550;SDS011;16488;52.396;10.696;2022-12-29T09:51:48;4.63;;;1.65;;
29550;SDS011;16488;52.396;10.696;2022-12-29T09:54:27;5.55;;;1.40;;
29550;SDS011;16488;52.396;10.696;2022-12-29T09:59:41;3.20;;;0.80;;
29550;SDS011;16488;52.396;10.696;2022-12-29T10:04:55;2.63;;;1.00;;
29550;SDS011;16488;52.396;10.696;2022-12-29T10:07:38;2.40;;;1.00;;
29550;SDS011;16488;52.396;10.696;2022-12-29T10:21:07;3.20;;;1.67;;
29550;SDS011;16488;52.396;10.696;2022-12-29T10:23:43;1.70;;;1.20;;
29550;SDS011;16488;52.396;10.696;2022-12-29T10:26:14;2.95;;;1.40;;
29550;SDS011;16488;52.396;10.696;2022-12-29T10:28:50;1.83;;;1.25;;
29550;SDS011;16488;52.396;10.696;2022-12-29T10:31:19;7.63;;;1.30;;
29550;SDS011;16488;52.396;10.696;2022-12-29T10:33:49;3.00;;;0.90;;
29550;SDS011;16488;52.396;10.696;2022-12-29T10:36:37;3.33;;;1.15;;
29550;SDS011;16488;52.396;10.696;2022-12-29T10:44:29;5.80;;;1.83;;
29550;SDS011;16488;52.396;10.696;2022-12-29T10:46:59;3.03;;;1.20;;
29550;SDS011;16488;52.396;10.696;2022-12-29T10:49:30;5.10;;;1.15;;
29550;SDS011;16488;52.396;10.696;2022-12-29T10:51:58;7.32;;;1.20;;
29550;SDS011;16488;52.396;10.696;2022-12-29T10:54:36;1.42;;;0.90;;
29550;SDS011;16488;52.396;10.696;2022-12-29T10:57:31;4.40;;;1.92;;
29550;SDS011;16488;52.396;10.696;2022-12-29T11:00:24;2.15;;;1.13;;
29550;SDS011;16488;52.396;10.696;2022-12-29T11:05:53;1.88;;;1.13;;
29550;SDS011;16488;52.396;10.696;2022-12-29T11:08:35;0.80;;;0.80;;
29550;SDS011;16488;52.396;10.696;2022-12-29T11:11:07;4.18;;;1.35;;
29550;SDS011;16488;52.396;10.696;2022-12-29T11:13:46;4.03;;;1.00;;
29550;SDS011;16488;52.396;10.696;2022-12-29T11:16:14;4.47;;;1.00;;
29550;SDS011;16488;52.396;10.696;2022-12-29T11:18:40;0.82;;;0.82;;
29550;SDS011;16488;52.396;10.696;2022-12-29T11:21:25;4.65;;;1.73;;
29550;SDS011;16488;52.396;10.696;2022-12-29T11:24:02;5.78;;;2.50;;
29550;SDS011;16488;52.396;10.696;2022-12-29T11:26:29;7.57;;;3.85;;
29550;SDS011;16488;52.396;10.696;2022-12-29T11:31:40;4.82;;;2.97;;
29550;SDS011;16488;52.396;10.696;2022-12-29T11:34:07;5.35;;;1.88;;
29550;SDS011;16488;52.396;10.696;2022-12-29T11:36:33;2.22;;;1.33;;
29550;SDS011;16488;52.396;10.696;2022-12-29T11:39:00;3.45;;;1.40;;
29550;SDS011;16488;52.396;10.696;2022-12-29T11:41:28;2.53;;;0.75;;
29550;SDS011;16488;52.396;10.696;2022-12-29T11:43:55;2.92;;;0.85;;
29550;SDS011;16488;52.396;10.696;2022-12-29T11:46:24;4.25;;;0.90;;
29550;SDS011;16488;52.396;10.696;2022-12-29T11:48:54;1.33;;;0.65;;
29550;SDS011;16488;52.396;10.696;2022-12-29T11:51:24;2.55;;;0.80;;
29550;SDS011;16488;52.396;10.696;2022-12-29T11:53:55;1.90;;;0.90;;
29550;SDS011;16488;52.396;10.696;2022-12-29T11:56:34;1.65;;;0.80;;
29550;SDS011;16488;52.396;10.696;2022-12-29T12:01:49;1.73;;;0.70;;
29550;SDS011;16488;52.396;10.696;2022-12-29T12:04:19;2.63;;;1.10;;
29550;SDS011;16488;52.396;10.696;2022-12-29T12:06:49;3.17;;;1.00;;
29550;SDS011;16488;52.396;10.696;2022-12-29T12:09:34;3.90;;;1.00;;
29550;SDS011;16488;52.396;10.696;2022-12-29T12:12:08;3.35;;;0.77;;
29550;SDS011;16488;52.396;10.696;2022-12-29T12:14:50;2.15;;;0.75;;
29550;SDS011;16488;52.396;10.696;2022-12-29T12:17:31;2.33;;;0.90;;
29550;SDS011;16488;52.396;10.696;2022-12-29T12:23:06;3.22;;;0.80;;
29550;SDS011;16488;52.396;10.696;2022-12-29T12:30:59;4.57;;;1.30;;
29550;SDS011;16488;52.396;10.696;2022-12-29T12:33:31;3.63;;;0.85;;
29550;SDS011;16488;52.396;10.696;2022-12-29T12:41:06;1.98;;;0.93;;
29550;SDS011;16488;52.396;10.696;2022-12-29T13:00:33;6.95;;;1.38;;
29550;SDS011;16488;52.396;10.696;2022-12-29T13:03:36;5.47;;;1.13;;
29550;SDS011;16488;52.396;10.696;2022-12-29T13:14:34;1.98;;;0.77;;
29550;SDS011;16488;52.396;10.696;2022-12-29T13:26:00;3.22;;;1.00;;
29550;SDS011;16488;52.396;10.696;2022-12-29T13:28:32;4.25;;;1.02;;
29550;SDS011;16488;52.396;10.696;2022-12-29T13:31:26;8.50;;;1.63;;
29550;SDS011;16488;52.396;10.696;2022-12-29T13:34:15;3.75;;;1.15;;
29550;SDS011;16488;52.396;10.696;2022-12-29T13:41:58;3.88;;;1.35;;
29550;SDS011;16488;52.396;10.696;2022-12-29T13:44:28;4.45;;;1.10;;
29550;SDS011;16488;52.396;10.696;2022-12-29T13:46:59;3.53;;;0.80;;
29550;SDS011;16488;52.396;10.696;2022-12-29T13:49:30;2.55;;;1.20;;
29550;SDS011;16488;52.396;10.696;2022-12-29T13:51:59;3.50;;;0.85;;
29550;SDS011;16488;52.396;10.696;2022-12-29T13:54:44;5.25;;;1.40;;
29550;SDS011;16488;52.396;10.696;2022-12-29T14:00:18;3.17;;;1.10;;
29550;SDS011;16488;52.396;10.696;2022-12-29T14:02:50;6.57;;;1.33;;
29550;SDS011;16488;52.396;10.696;2022-12-29T14:05:30;4.22;;;1.23;;
29550;SDS011;16488;52.396;10.696;2022-12-29T14:07:59;5.28;;;1.23;;
29550;SDS011;16488;52.396;10.696;2022-12-29T14:10:34;5.60;;;1.23;;
29550;SDS011;16488;52.396;10.696;2022-12-29T14:13:04;6.50;;;2.05;;
29550;SDS011;16488;52.396;10.696;2022-12-29T14:15:52;5.07;;;1.85;;
29550;SDS011;16488;52.396;10.696;2022-12-29T14:18:27;4.13;;;1.47;;
29550;SDS011;16488;52.396;10.696;2022-12-29T14:20:59;2.97;;;1.63;;
29550;SDS011;16488;52.396;10.696;2022-12-29T14:27:51;7.50;;;1.75;;
29550;SDS011;16488;52.396;10.696;2022-12-29T14:29:46;5.45;;;1.92;;
29550;SDS011;16488;52.396;10.696;2022-12-29T14:35:00;5.80;;;1.83;;
29550;SDS011;16488;52.396;10.696;2022-12-29T14:37:46;8.10;;;2.03;;
29550;SDS011;16488;52.396;10.696;2022-12-29T14:42:49;4.35;;;1.77;;
29550;SDS011;16488;52.396;10.696;2022-12-29T14:47:43;3.03;;;1.70;;
29550;SDS011;16488;52.396;10.696;2022-12-29T14:58:17;5.82;;;1.85;;
29550;SDS011;16488;52.396;10.696;2022-12-29T15:00:51;7.10;;;2.53;;
29550;SDS011;16488;52.396;10.696;2022-12-29T15:05:52;5.05;;;1.98;;
29550;SDS011;16488;52.396;10.696;2022-12-29T15:08:36;7.13;;;2.08;;
29550;SDS011;16488;52.396;10.696;2022-12-29T15:11:13;5.22;;;1.50;;
29550;SDS011;16488;52.396;10.696;2022-12-29T15:13:42;4.07;;;1.67;;
29550;SDS011;16488;52.396;10.696;2022-12-29T15:16:25;6.97;;;1.85;;
29550;SDS011;16488;52.396;10.696;2022-12-29T15:18:55;10.30;;;2.03;;
29550;SDS011;16488;52.396;10.696;2022-12-29T15:21:32;9.95;;;2.60;;
29550;SDS011;16488;52.396;10.696;2022-12-29T15:24:00;6.78;;;2.92;;
29550;SDS011;16488;52.396;10.696;2022-12-29T15:26:39;9.80;;;2.35;;
29550;SDS011;16488;52.396;10.696;2022-12-29T15:32:21;10.13;;;1.70;;
29550;SDS011;16488;52.396;10.696;2022-12-29T15:34:50;7.90;;;1.85;;
29550;SDS011;16488;52.396;10.696;2022-12-29T15:37:19;7.47;;;1.90;;
29550;SDS011;16488;52.396;10.696;2022-12-29T15:39:51;4.50;;;2.28;;
29550;SDS011;16488;52.396;10.696;2022-12-29T15:44:53;10.43;;;2.15;;
29550;SDS011;16488;52.396;10.696;2022-12-29T15:47:23;10.00;;;2.42;;
29550;SDS011;16488;52.396;10.696;2022-12-29T15:49:52;6.80;;;1.80;;
29550;SDS011;16488;52.396;10.696;2022-12-29T15:52:23;7.47;;;1.63;;
29550;SDS011;16488;52.396;10.696;2022-12-29T15:57:23;6.95;;;2.25;;
29550;SDS011;16488;52.396;10.696;2022-12-29T15:59:49;9.15;;;2.20;;
29550;SDS011;16488;52.396;10.696;2022-12-29T16:02:15;8.38;;;1.80;;
29550;SDS011;16488;52.396;10.696;2022-12-29T16:04:40;6.88;;;1.83;;
29550;SDS011;16488;52.396;10.696;2022-12-29T16:09:47;5.97;;;2.00;;
29550;SDS011;16488;52.396;10.696;2022-12-29T16:12:20;7.82;;;1.65;;
29550;SDS011;16488;52.396;10.696;2022-12-29T16:15:03;7.55;;;1.95;;
29550;SDS011;16488;52.396;10.696;2022-12-29T16:17:33;3.67;;;1.50;;
29550;SDS011;16488;52.396;10.696;2022-12-29T16:20:15;8.77;;;1.80;;
29550;SDS011;16488;52.396;10.696;2022-12-29T16:22:48;7.75;;;2.80;;
29550;SDS011;16488;52.396;10.696;2022-12-29T16:27:50;6.40;;;2.13;;
29550;SDS011;16488;52.396;10.696;2022-12-29T16:30:38;7.13;;;1.60;;
29550;SDS011;16488;52.396;10.696;2022-12-29T16:33:03;6.10;;;1.73;;
29550;SDS011;16488;52.396;10.696;2022-12-29T16:38:15;6.65;;;1.58;;
29550;SDS011;16488;52.396;10.696;2022-12-29T16:43:26;10.35;;;1.65;;
29550;SDS011;16488;52.396;10.696;2022-12-29T16:46:11;3.67;;;1.75;;
29550;SDS011;16488;52.396;10.696;2022-12-29T16:48:52;4.38;;;1.60;;
29550;SDS011;16488;52.396;10.696;2022-12-29T16:51:29;5.57;;;1.67;;
29550;SDS011;16488;52.396;10.696;2022-12-29T16:54:00;5.43;;;1.85;;
29550;SDS011;16488;52.396;10.696;2022-12-29T16:56:27;7.60;;;1.70;;
29550;SDS011;16488;52.396;10.696;2022-12-29T16:59:07;7.57;;;2.20;;
29550;SDS011;16488;52.396;10.696;2022-12-29T17:01:46;5.35;;;1.83;;
29550;SDS011;16488;52.396;10.696;2022-12-29T17:04:11;7.40;;;2.10;;
29550;SDS011;16488;52.396;10.696;2022-12-29T17:06:39;4.70;;;1.60;;
29550;SDS011;16488;52.396;10.696;2022-12-29T17:12:00;8.85;;;2.03;;
29550;SDS011;16488;52.396;10.696;2022-12-29T17:16:52;9.37;;;2.47;;
29550;SDS011;16488;52.396;10.696;2022-12-29T17:19:19;5.35;;;1.98;;
29550;SDS011;16488;52.396;10.696;2022-12-29T17:21:48;7.47;;;1.50;;
29550;SDS011;16488;52.396;10.696;2022-12-29T17:24:17;6.35;;;2.45;;
29550;SDS011;16488;52.396;10.696;2022-12-29T17:26:45;7.65;;;2.15;;
29550;SDS011;16488;52.396;10.696;2022-12-29T17:29:32;6.55;;;1.50;;
29550;SDS011;16488;52.396;10.696;2022-12-29T17:32:01;10.45;;;2.47;;
29550;SDS011;16488;52.396;10.696;2022-12-29T17:34:29;12.07;;;2.20;;
29550;SDS011;16488;52.396;10.696;2022-12-29T17:36:55;6.40;;;1.67;;
29550;SDS011;16488;52.396;10.696;2022-12-29T17:39:21;6.85;;;1.60;;
29550;SDS011;16488;52.396;10.696;2022-12-29T17:41:47;10.30;;;1.85;;
29550;SDS011;16488;52.396;10.696;2022-12-29T17:44:14;13.05;;;2.45;;
29550;SDS011;16488;52.396;10.696;2022-12-29T17:46:42;3.80;;;1.50;;